sensor_id;sensor_type;location;lat;lon;timestamp;pressure;altitude;pressure_sealevel;temperature;humidity
72794;BME280;63436;26.334;50.194;2023-03-22T00:02:15;100869.21;;;25.30;33.27
72794;BME280;63436;26.334;50.194;2023-03-22T00:04:41;100873.91;;;24.76;33.70
72794;BME280;63436;26.334;50.194;2023-03-22T00:07:06;100872.58;;;24.53;33.87
72794;BME280;63436;26.334;50.194;2023-03-22T00:09:31;100865.73;;;25.41;32.82
72794;BME280;63436;26.334;50.194;2023-03-22T00:11:56;100863.77;;;24.67;33.36
72794;BME280;63436;26.334;50.194;2023-03-22T00:14:22;100868.37;;;24.50;33.57
72794;BME280;63436;26.334;50.194;2023-03-22T00:16:47;100862.81;;;25.04;33.15
72794;BME280;63436;26.334;50.194;2023-03-22T00:19:12;100865.08;;;24.94;33.30
72794;BME280;63436;26.334;50.194;2023-03-22T00:21:38;100863.36;;;25.21;33.26
72794;BME280;63436;26.334;50.194;2023-03-22T00:24:03;100866.77;;;25.27;33.16
72794;BME280;63436;26.334;50.194;2023-03-22T00:26:29;100875.16;;;24.60;33.95
72794;BME280;63436;26.334;50.194;2023-03-22T00:28:54;100873.77;;;25.27;33.54
72794;BME280;63436;26.334;50.194;2023-03-22T00:31:20;100879.93;;;25.26;33.53
72794;BME280;63436;26.334;50.194;2023-03-22T00:33:45;100880.85;;;24.69;33.56
72794;BME280;63436;26.334;50.194;2023-03-22T00:36:11;100879.80;;;25.06;33.54
72794;BME280;63436;26.334;50.194;2023-03-22T00:38:37;100882.11;;;24.99;33.54
72794;BME280;63436;26.334;50.194;2023-03-22T00:41:06;100882.14;;;24.77;33.80
72794;BME280;63436;26.334;50.194;2023-03-22T00:43:28;100881.28;;;25.34;32.81
72794;BME280;63436;26.334;50.194;2023-03-22T00:45:54;100884.92;;;26.08;32.46
72794;BME280;63436;26.334;50.194;2023-03-22T00:48:19;100887.57;;;25.41;32.72
72794;BME280;63436;26.334;50.194;2023-03-22T00:50:45;100887.02;;;24.63;33.66
72794;BME280;63436;26.334;50.194;2023-03-22T00:53:10;100886.72;;;24.72;33.58
72794;BME280;63436;26.334;50.194;2023-03-22T00:55:36;100887.94;;;24.50;33.75
72794;BME280;63436;26.334;50.194;2023-03-22T00:58:02;100887.47;;;24.67;33.56
72794;BME280;63436;26.334;50.194;2023-03-22T01:00:27;100887.28;;;25.05;33.80
72794;BME280;63436;26.334;50.194;2023-03-22T01:02:53;100887.71;;;25.07;33.69
72794;BME280;63436;26.334;50.194;2023-03-22T01:05:19;100884.56;;;25.06;33.23
72794;BME280;63436;26.334;50.194;2023-03-22T01:07:44;100887.64;;;25.07;33.54
72794;BME280;63436;26.334;50.194;2023-03-22T01:10:10;100885.00;;;25.17;33.37
72794;BME280;63436;26.334;50.194;2023-03-22T01:12:35;100887.94;;;24.64;33.54
72794;BME280;63436;26.334;50.194;2023-03-22T01:15:00;100888.79;;;24.78;33.20
72794;BME280;63436;26.334;50.194;2023-03-22T01:17:25;100889.53;;;26.05;32.33
72794;BME280;63436;26.334;50.194;2023-03-22T01:19:51;100886.47;;;26.53;32.13
72794;BME280;63436;26.334;50.194;2023-03-22T01:22:16;100895.72;;;25.06;33.81
72794;BME280;63436;26.334;50.194;2023-03-22T01:24:42;100899.31;;;25.60;32.65
72794;BME280;63436;26.334;50.194;2023-03-22T01:27:07;100903.29;;;25.33;33.68
72794;BME280;63436;26.334;50.194;2023-03-22T01:29:33;100904.83;;;24.79;33.98
72794;BME280;63436;26.334;50.194;2023-03-22T01:31:58;100904.82;;;25.75;32.95
72794;BME280;63436;26.334;50.194;2023-03-22T01:34:23;100910.99;;;25.51;32.92
72794;BME280;63436;26.334;50.194;2023-03-22T01:36:48;100915.70;;;25.66;33.01
72794;BME280;63436;26.334;50.194;2023-03-22T01:39:14;100919.74;;;25.45;33.46
72794;BME280;63436;26.334;50.194;2023-03-22T01:41:39;100920.39;;;24.78;34.14
72794;BME280;63436;26.334;50.194;2023-03-22T01:44:08;100922.09;;;24.76;34.35
72794;BME280;63436;26.334;50.194;2023-03-22T01:46:31;100926.85;;;24.79;34.01
72794;BME280;63436;26.334;50.194;2023-03-22T01:48:57;100932.76;;;24.56;34.20
72794;BME280;63436;26.334;50.194;2023-03-22T01:51:23;100940.68;;;24.66;34.56
72794;BME280;63436;26.334;50.194;2023-03-22T01:53:51;100944.70;;;25.55;33.34
72794;BME280;63436;26.334;50.194;2023-03-22T01:56:14;100949.60;;;25.19;33.80
72794;BME280;63436;26.334;50.194;2023-03-22T01:58:40;100951.22;;;24.83;33.71
72794;BME280;63436;26.334;50.194;2023-03-22T02:01:07;100950.07;;;25.28;33.37
72794;BME280;63436;26.334;50.194;2023-03-22T02:03:36;100957.42;;;25.37;33.26
72794;BME280;63436;26.334;50.194;2023-03-22T02:05:56;100957.54;;;25.36;33.62
72794;BME280;63436;26.334;50.194;2023-03-22T02:08:20;100960.01;;;24.88;33.86
72794;BME280;63436;26.334;50.194;2023-03-22T02:10:47;100961.97;;;25.25;33.31
72794;BME280;63436;26.334;50.194;2023-03-22T02:13:26;100962.42;;;25.56;33.18
72794;BME280;63436;26.334;50.194;2023-03-22T02:15:40;100964.10;;;25.44;33.52
72794;BME280;63436;26.334;50.194;2023-03-22T02:18:15;100965.86;;;25.59;33.25
72794;BME280;63436;26.334;50.194;2023-03-22T02:23:03;100975.39;;;24.99;33.72
72794;BME280;63436;26.334;50.194;2023-03-22T02:25:33;100975.98;;;24.89;34.29
72794;BME280;63436;26.334;50.194;2023-03-22T02:30:24;100986.48;;;25.55;33.17
72794;BME280;63436;26.334;50.194;2023-03-22T02:32:47;100988.89;;;25.12;33.40
72794;BME280;63436;26.334;50.194;2023-03-22T02:35:20;100990.48;;;25.14;33.60
72794;BME280;63436;26.334;50.194;2023-03-22T02:39:55;100987.63;;;24.84;33.74
72794;BME280;63436;26.334;50.194;2023-03-22T02:42:28;100990.08;;;24.42;34.62
72794;BME280;63436;26.334;50.194;2023-03-22T02:44:49;100993.46;;;25.16;33.55
72794;BME280;63436;26.334;50.194;2023-03-22T02:47:19;100994.70;;;25.45;33.35
72794;BME280;63436;26.334;50.194;2023-03-22T02:49:38;100995.53;;;25.19;33.23
72794;BME280;63436;26.334;50.194;2023-03-22T02:52:04;100998.11;;;25.48;33.12
72794;BME280;63436;26.334;50.194;2023-03-22T02:54:29;100995.42;;;24.49;34.14
72794;BME280;63436;26.334;50.194;2023-03-22T02:56:57;100995.23;;;24.38;34.44
72794;BME280;63436;26.334;50.194;2023-03-22T02:59:19;101002.20;;;24.10;34.60
72794;BME280;63436;26.334;50.194;2023-03-22T03:01:46;101009.93;;;24.49;33.88
72794;BME280;63436;26.334;50.194;2023-03-22T03:04:13;101015.40;;;24.56;33.61
72794;BME280;63436;26.334;50.194;2023-03-22T03:06:37;101019.90;;;24.86;33.40
72794;BME280;63436;26.334;50.194;2023-03-22T03:09:00;101022.25;;;24.78;33.52
72794;BME280;63436;26.334;50.194;2023-03-22T03:11:25;101028.35;;;24.59;33.84
72794;BME280;63436;26.334;50.194;2023-03-22T03:13:51;101027.23;;;24.42;33.76
72794;BME280;63436;26.334;50.194;2023-03-22T03:16:20;101028.08;;;24.60;33.47
72794;BME280;63436;26.334;50.194;2023-03-22T03:18:44;101030.93;;;24.53;33.58
72794;BME280;63436;26.334;50.194;2023-03-22T03:21:16;101035.12;;;25.33;32.71
72794;BME280;63436;26.334;50.194;2023-03-22T03:23:38;101036.47;;;25.53;32.37
72794;BME280;63436;26.334;50.194;2023-03-22T03:26:03;101036.08;;;25.93;31.63
72794;BME280;63436;26.334;50.194;2023-03-22T03:28:28;101036.37;;;25.92;31.87
72794;BME280;63436;26.334;50.194;2023-03-22T03:30:55;101035.97;;;26.05;31.54
72794;BME280;63436;26.334;50.194;2023-03-22T03:33:16;101039.27;;;25.81;31.76
72794;BME280;63436;26.334;50.194;2023-03-22T03:35:45;101042.34;;;25.91;32.30
72794;BME280;63436;26.334;50.194;2023-03-22T03:38:08;101044.12;;;24.91;33.33
72794;BME280;63436;26.334;50.194;2023-03-22T03:40:31;101049.46;;;25.40;32.32
72794;BME280;63436;26.334;50.194;2023-03-22T03:42:56;101053.31;;;25.60;32.27
72794;BME280;63436;26.334;50.194;2023-03-22T03:45:21;101056.44;;;25.75;31.96
72794;BME280;63436;26.334;50.194;2023-03-22T03:47:46;101059.15;;;26.04;31.57
72794;BME280;63436;26.334;50.194;2023-03-22T03:50:13;101058.25;;;24.85;32.78
72794;BME280;63436;26.334;50.194;2023-03-22T03:52:37;101061.28;;;25.63;31.83
72794;BME280;63436;26.334;50.194;2023-03-22T03:55:03;101060.53;;;26.57;30.93
72794;BME280;63436;26.334;50.194;2023-03-22T03:57:28;101066.48;;;25.62;31.33
72794;BME280;63436;26.334;50.194;2023-03-22T03:59:54;101066.14;;;26.48;30.83
72794;BME280;63436;26.334;50.194;2023-03-22T04:02:19;101071.22;;;26.08;30.79
72794;BME280;63436;26.334;50.194;2023-03-22T04:04:45;101066.62;;;27.03;29.49
72794;BME280;63436;26.334;50.194;2023-03-22T04:07:10;101069.22;;;26.46;30.00
72794;BME280;63436;26.334;50.194;2023-03-22T04:09:37;101069.63;;;27.17;29.15
72794;BME280;63436;26.334;50.194;2023-03-22T04:12:01;101075.67;;;26.17;30.23
72794;BME280;63436;26.334;50.194;2023-03-22T04:14:27;101077.54;;;27.52;28.66
72794;BME280;63436;26.334;50.194;2023-03-22T04:16:53;101081.42;;;27.39;28.96
72794;BME280;63436;26.334;50.194;2023-03-22T04:19:18;101083.42;;;27.20;28.54
72794;BME280;63436;26.334;50.194;2023-03-22T04:21:43;101087.68;;;27.93;28.03
72794;BME280;63436;26.334;50.194;2023-03-22T04:24:09;101090.51;;;26.99;28.97
72794;BME280;63436;26.334;50.194;2023-03-22T04:26:35;101096.42;;;26.85;29.01
72794;BME280;63436;26.334;50.194;2023-03-22T04:29:00;101096.45;;;27.65;28.38
72794;BME280;63436;26.334;50.194;2023-03-22T04:31:26;101096.18;;;28.06;27.73
72794;BME280;63436;26.334;50.194;2023-03-22T04:33:51;101101.19;;;27.84;27.65
72794;BME280;63436;26.334;50.194;2023-03-22T04:36:16;101102.99;;;28.56;26.88
72794;BME280;63436;26.334;50.194;2023-03-22T04:38:41;101106.86;;;27.10;28.45
72794;BME280;63436;26.334;50.194;2023-03-22T04:41:07;101109.96;;;28.76;26.38
72794;BME280;63436;26.334;50.194;2023-03-22T04:43:32;101114.34;;;27.95;26.77
72794;BME280;63436;26.334;50.194;2023-03-22T04:45:58;101118.98;;;28.67;25.99
72794;BME280;63436;26.334;50.194;2023-03-22T04:48:23;101123.04;;;26.12;28.80
72794;BME280;63436;26.334;50.194;2023-03-22T04:50:49;101124.22;;;28.80;26.36
72794;BME280;63436;26.334;50.194;2023-03-22T04:53:15;101129.38;;;28.54;26.44
72794;BME280;63436;26.334;50.194;2023-03-22T04:55:42;101132.84;;;27.78;26.53
72794;BME280;63436;26.334;50.194;2023-03-22T04:58:05;101141.81;;;28.31;25.55
72794;BME280;63436;26.334;50.194;2023-03-22T05:00:31;101145.24;;;27.12;26.76
72794;BME280;63436;26.334;50.194;2023-03-22T05:02:56;101144.03;;;28.87;25.28
72794;BME280;63436;26.334;50.194;2023-03-22T05:05:21;101144.83;;;28.84;25.15
72794;BME280;63436;26.334;50.194;2023-03-22T05:07:47;101145.96;;;28.44;25.39
72794;BME280;63436;26.334;50.194;2023-03-22T05:10:12;101150.12;;;27.87;25.49
72794;BME280;63436;26.334;50.194;2023-03-22T05:12:38;101154.73;;;27.26;26.80
72794;BME280;63436;26.334;50.194;2023-03-22T05:15:06;101151.84;;;28.20;25.73
72794;BME280;63436;26.334;50.194;2023-03-22T05:17:44;101159.59;;;27.12;27.11
72794;BME280;63436;26.334;50.194;2023-03-22T05:19:55;101162.27;;;26.24;28.49
72794;BME280;63436;26.334;50.194;2023-03-22T05:22:20;101161.68;;;26.00;26.87
72794;BME280;63436;26.334;50.194;2023-03-22T05:24:45;101161.64;;;26.80;26.68
72794;BME280;63436;26.334;50.194;2023-03-22T05:27:11;101163.04;;;27.43;25.90
72794;BME280;63436;26.334;50.194;2023-03-22T05:29:37;101164.71;;;26.42;26.53
72794;BME280;63436;26.334;50.194;2023-03-22T05:32:02;101164.36;;;26.03;27.55
72794;BME280;63436;26.334;50.194;2023-03-22T05:34:27;101168.47;;;26.67;26.13
72794;BME280;63436;26.334;50.194;2023-03-22T05:36:53;101171.97;;;27.35;25.16
72794;BME280;63436;26.334;50.194;2023-03-22T05:39:18;101175.81;;;25.56;27.23
72794;BME280;63436;26.334;50.194;2023-03-22T05:41:44;101176.67;;;27.37;24.84
72794;BME280;63436;26.334;50.194;2023-03-22T05:44:10;101182.68;;;27.23;24.84
72794;BME280;63436;26.334;50.194;2023-03-22T05:46:36;101182.19;;;28.70;23.21
72794;BME280;63436;26.334;50.194;2023-03-22T05:49:01;101182.69;;;27.57;24.24
72794;BME280;63436;26.334;50.194;2023-03-22T05:51:26;101182.86;;;28.85;22.45
72794;BME280;63436;26.334;50.194;2023-03-22T05:53:52;101185.68;;;27.97;22.97
72794;BME280;63436;26.334;50.194;2023-03-22T05:56:18;101191.28;;;28.95;22.04
72794;BME280;63436;26.334;50.194;2023-03-22T05:58:43;101192.44;;;28.09;22.12
72794;BME280;63436;26.334;50.194;2023-03-22T06:01:09;101198.56;;;27.19;22.07
72794;BME280;63436;26.334;50.194;2023-03-22T06:03:33;101193.29;;;28.80;20.36
72794;BME280;63436;26.334;50.194;2023-03-22T06:05:59;101193.78;;;28.02;20.26
72794;BME280;63436;26.334;50.194;2023-03-22T06:08:24;101187.51;;;29.11;19.79
72794;BME280;63436;26.334;50.194;2023-03-22T06:10:50;101185.03;;;28.48;20.91
72794;BME280;63436;26.334;50.194;2023-03-22T06:13:14;101184.47;;;28.99;20.11
72794;BME280;63436;26.334;50.194;2023-03-22T06:15:40;101191.98;;;27.33;19.58
72794;BME280;63436;26.334;50.194;2023-03-22T06:18:06;101185.85;;;28.48;18.51
72794;BME280;63436;26.334;50.194;2023-03-22T06:20:31;101182.49;;;27.67;18.76
72794;BME280;63436;26.334;50.194;2023-03-22T06:22:57;101186.47;;;28.55;19.17
72794;BME280;63436;26.334;50.194;2023-03-22T06:25:22;101186.49;;;28.55;18.38
72794;BME280;63436;26.334;50.194;2023-03-22T06:27:48;101189.18;;;28.50;19.38
72794;BME280;63436;26.334;50.194;2023-03-22T06:30:13;101193.71;;;28.72;18.39
72794;BME280;63436;26.334;50.194;2023-03-22T06:32:38;101190.72;;;27.77;19.64
72794;BME280;63436;26.334;50.194;2023-03-22T06:35:04;101199.29;;;27.85;19.50
72794;BME280;63436;26.334;50.194;2023-03-22T06:37:28;101201.33;;;27.50;19.17
72794;BME280;63436;26.334;50.194;2023-03-22T06:39:53;101196.30;;;28.37;18.59
72794;BME280;63436;26.334;50.194;2023-03-22T06:42:18;101200.55;;;27.53;18.79
72794;BME280;63436;26.334;50.194;2023-03-22T06:44:44;101203.58;;;27.18;18.58
72794;BME280;63436;26.334;50.194;2023-03-22T06:47:10;101194.90;;;27.76;18.57
72794;BME280;63436;26.334;50.194;2023-03-22T06:49:35;101198.51;;;26.23;18.50
72794;BME280;63436;26.334;50.194;2023-03-22T06:52:01;101202.07;;;27.03;18.88
72794;BME280;63436;26.334;50.194;2023-03-22T06:54:26;101192.21;;;27.80;17.94
72794;BME280;63436;26.334;50.194;2023-03-22T06:56:52;101188.44;;;27.78;18.27
72794;BME280;63436;26.334;50.194;2023-03-22T06:59:17;101190.34;;;26.22;19.32
72794;BME280;63436;26.334;50.194;2023-03-22T07:01:42;101183.52;;;27.50;18.49
72794;BME280;63436;26.334;50.194;2023-03-22T07:04:08;101185.56;;;28.34;17.00
72794;BME280;63436;26.334;50.194;2023-03-22T07:06:33;101180.36;;;27.92;16.94
72794;BME280;63436;26.334;50.194;2023-03-22T07:08:59;101175.57;;;25.82;18.80
72794;BME280;63436;26.334;50.194;2023-03-22T07:11:25;101175.75;;;27.52;17.36
72794;BME280;63436;26.334;50.194;2023-03-22T07:13:50;101172.23;;;27.26;16.69
72794;BME280;63436;26.334;50.194;2023-03-22T07:16:16;101164.50;;;27.23;17.41
72794;BME280;63436;26.334;50.194;2023-03-22T07:18:41;101156.53;;;28.25;15.73
72794;BME280;63436;26.334;50.194;2023-03-22T07:21:07;101156.70;;;27.83;15.77
72794;BME280;63436;26.334;50.194;2023-03-22T07:23:33;101155.00;;;27.79;15.75
72794;BME280;63436;26.334;50.194;2023-03-22T07:25:59;101157.48;;;27.90;16.03
72794;BME280;63436;26.334;50.194;2023-03-22T07:28:23;101154.77;;;27.80;15.84
72794;BME280;63436;26.334;50.194;2023-03-22T07:31:00;101149.52;;;28.31;15.72
72794;BME280;63436;26.334;50.194;2023-03-22T07:33:15;101144.92;;;27.24;16.63
72794;BME280;63436;26.334;50.194;2023-03-22T07:35:41;101144.98;;;27.23;16.06
72794;BME280;63436;26.334;50.194;2023-03-22T07:38:06;101138.70;;;28.60;16.35
72794;BME280;63436;26.334;50.194;2023-03-22T07:40:32;101145.12;;;28.07;15.51
72794;BME280;63436;26.334;50.194;2023-03-22T07:42:57;101147.51;;;28.26;15.56
72794;BME280;63436;26.334;50.194;2023-03-22T07:45:23;101151.26;;;28.76;15.40
72794;BME280;63436;26.334;50.194;2023-03-22T07:47:49;101143.34;;;27.68;15.86
72794;BME280;63436;26.334;50.194;2023-03-22T07:50:14;101138.12;;;28.66;15.76
72794;BME280;63436;26.334;50.194;2023-03-22T07:52:40;101138.10;;;28.62;15.18
72794;BME280;63436;26.334;50.194;2023-03-22T07:55:06;101136.07;;;28.86;14.67
72794;BME280;63436;26.334;50.194;2023-03-22T07:57:31;101127.95;;;26.94;15.69
72794;BME280;63436;26.334;50.194;2023-03-22T07:59:56;101138.28;;;27.47;15.96
72794;BME280;63436;26.334;50.194;2023-03-22T08:02:22;101135.38;;;28.39;15.55
72794;BME280;63436;26.334;50.194;2023-03-22T08:04:48;101134.55;;;28.81;15.05
72794;BME280;63436;26.334;50.194;2023-03-22T08:07:13;101135.92;;;29.42;14.45
72794;BME280;63436;26.334;50.194;2023-03-22T08:09:39;101136.53;;;27.76;15.05
72794;BME280;63436;26.334;50.194;2023-03-22T08:12:05;101132.27;;;26.94;15.46
72794;BME280;63436;26.334;50.194;2023-03-22T08:14:30;101130.58;;;29.54;13.84
72794;BME280;63436;26.334;50.194;2023-03-22T08:16:56;101126.80;;;29.18;13.75
72794;BME280;63436;26.334;50.194;2023-03-22T08:19:21;101131.26;;;28.88;13.92
72794;BME280;63436;26.334;50.194;2023-03-22T08:21:47;101131.59;;;28.33;14.27
72794;BME280;63436;26.334;50.194;2023-03-22T08:24:12;101130.43;;;28.75;14.35
72794;BME280;63436;26.334;50.194;2023-03-22T08:26:38;101134.65;;;28.48;14.59
72794;BME280;63436;26.334;50.194;2023-03-22T08:29:03;101140.11;;;27.86;15.12
72794;BME280;63436;26.334;50.194;2023-03-22T08:31:29;101138.98;;;28.35;15.03
72794;BME280;63436;26.334;50.194;2023-03-22T08:33:55;101133.22;;;28.37;14.90
72794;BME280;63436;26.334;50.194;2023-03-22T08:36:21;101122.51;;;29.10;14.57
72794;BME280;63436;26.334;50.194;2023-03-22T08:38:46;101124.36;;;29.23;14.24
72794;BME280;63436;26.334;50.194;2023-03-22T08:41:12;101115.79;;;28.88;14.59
72794;BME280;63436;26.334;50.194;2023-03-22T08:43:37;101112.35;;;29.49;14.63
72794;BME280;63436;26.334;50.194;2023-03-22T08:46:04;101118.59;;;28.87;14.05
72794;BME280;63436;26.334;50.194;2023-03-22T08:48:29;101116.08;;;29.22;14.34
72794;BME280;63436;26.334;50.194;2023-03-22T08:50:54;101115.44;;;26.79;15.45
72794;BME280;63436;26.334;50.194;2023-03-22T08:53:20;101107.94;;;27.94;14.27
72794;BME280;63436;26.334;50.194;2023-03-22T08:55:45;101102.41;;;29.13;13.90
72794;BME280;63436;26.334;50.194;2023-03-22T08:58:12;101103.58;;;28.30;14.00
72794;BME280;63436;26.334;50.194;2023-03-22T09:00:37;101101.65;;;29.27;13.35
72794;BME280;63436;26.334;50.194;2023-03-22T09:03:03;101088.58;;;28.77;13.27
72794;BME280;63436;26.334;50.194;2023-03-22T09:05:28;101090.72;;;28.34;13.87
72794;BME280;63436;26.334;50.194;2023-03-22T09:07:54;101079.63;;;27.94;13.30
72794;BME280;63436;26.334;50.194;2023-03-22T09:10:19;101069.75;;;28.81;13.36
72794;BME280;63436;26.334;50.194;2023-03-22T09:12:45;101075.63;;;28.42;13.60
72794;BME280;63436;26.334;50.194;2023-03-22T09:15:10;101067.42;;;29.27;13.15
72794;BME280;63436;26.334;50.194;2023-03-22T09:17:36;101064.57;;;28.94;12.79
72794;BME280;63436;26.334;50.194;2023-03-22T09:20:01;101058.81;;;29.25;12.89
72794;BME280;63436;26.334;50.194;2023-03-22T09:22:27;101056.83;;;28.87;12.59
72794;BME280;63436;26.334;50.194;2023-03-22T09:24:53;101051.70;;;29.59;12.55
72794;BME280;63436;26.334;50.194;2023-03-22T09:27:28;101042.82;;;28.85;13.07
72794;BME280;63436;26.334;50.194;2023-03-22T09:29:44;101045.45;;;28.08;13.20
72794;BME280;63436;26.334;50.194;2023-03-22T09:32:09;101040.62;;;28.93;12.70
72794;BME280;63436;26.334;50.194;2023-03-22T09:34:35;101036.07;;;28.76;13.07
72794;BME280;63436;26.334;50.194;2023-03-22T09:37:01;101040.23;;;29.10;12.75
72794;BME280;63436;26.334;50.194;2023-03-22T09:39:26;101041.06;;;29.41;12.57
72794;BME280;63436;26.334;50.194;2023-03-22T09:41:55;101038.22;;;30.13;12.43
72794;BME280;63436;26.334;50.194;2023-03-22T09:44:22;101030.19;;;28.59;12.84
72794;BME280;63436;26.334;50.194;2023-03-22T09:46:45;101023.41;;;29.18;12.31
72794;BME280;63436;26.334;50.194;2023-03-22T09:49:15;101028.18;;;29.02;12.66
72794;BME280;63436;26.334;50.194;2023-03-22T09:51:39;101020.88;;;29.14;12.27
72794;BME280;63436;26.334;50.194;2023-03-22T09:54:00;101010.15;;;29.00;11.95
72794;BME280;63436;26.334;50.194;2023-03-22T09:56:29;101005.88;;;29.23;12.40
72794;BME280;63436;26.334;50.194;2023-03-22T09:58:55;101008.08;;;29.18;12.29
72794;BME280;63436;26.334;50.194;2023-03-22T10:01:25;101008.79;;;29.47;12.14
72794;BME280;63436;26.334;50.194;2023-03-22T10:03:59;100994.79;;;29.03;12.06
72794;BME280;63436;26.334;50.194;2023-03-22T10:06:12;100999.44;;;29.39;12.50
72794;BME280;63436;26.334;50.194;2023-03-22T10:08:41;100993.11;;;29.07;12.74
72794;BME280;63436;26.334;50.194;2023-03-22T10:10:59;101000.25;;;29.44;12.70
72794;BME280;63436;26.334;50.194;2023-03-22T10:13:44;100996.42;;;28.55;12.74
72794;BME280;63436;26.334;50.194;2023-03-22T10:15:52;100988.68;;;28.98;12.59
72794;BME280;63436;26.334;50.194;2023-03-22T10:18:18;100984.01;;;29.24;12.67
72794;BME280;63436;26.334;50.194;2023-03-22T10:23:19;100972.53;;;29.06;12.52
72794;BME280;63436;26.334;50.194;2023-03-22T10:25:35;100982.85;;;29.29;12.45
72794;BME280;63436;26.334;50.194;2023-03-22T10:27:58;100975.22;;;29.47;12.28
72794;BME280;63436;26.334;50.194;2023-03-22T10:30:26;100967.97;;;29.06;12.29
72794;BME280;63436;26.334;50.194;2023-03-22T10:32:54;100968.65;;;30.27;11.68
72794;BME280;63436;26.334;50.194;2023-03-22T10:35:15;100967.74;;;29.79;12.21
72794;BME280;63436;26.334;50.194;2023-03-22T10:37:44;100977.56;;;29.10;11.68
72794;BME280;63436;26.334;50.194;2023-03-22T10:40:09;100962.79;;;29.59;11.47
72794;BME280;63436;26.334;50.194;2023-03-22T10:42:35;100972.48;;;29.26;11.81
72794;BME280;63436;26.334;50.194;2023-03-22T10:44:59;100965.49;;;29.66;11.79
72794;BME280;63436;26.334;50.194;2023-03-22T10:47:28;100961.67;;;29.48;11.73
72794;BME280;63436;26.334;50.194;2023-03-22T10:49:50;100955.04;;;30.18;10.94
72794;BME280;63436;26.334;50.194;2023-03-22T10:52:29;100949.87;;;29.17;11.83
72794;BME280;63436;26.334;50.194;2023-03-22T10:54:39;100950.61;;;29.36;11.62
72794;BME280;63436;26.334;50.194;2023-03-22T10:57:15;100945.57;;;30.02;11.59
72794;BME280;63436;26.334;50.194;2023-03-22T10:59:41;100946.34;;;30.45;11.36
72794;BME280;63436;26.334;50.194;2023-03-22T11:01:56;100937.35;;;30.82;11.36
72794;BME280;63436;26.334;50.194;2023-03-22T11:04:24;100925.98;;;30.13;11.12
72794;BME280;63436;26.334;50.194;2023-03-22T11:09:21;100933.96;;;29.83;11.06
72794;BME280;63436;26.334;50.194;2023-03-22T11:11:50;100939.07;;;29.79;11.15
72794;BME280;63436;26.334;50.194;2023-03-22T11:14:21;100934.49;;;29.17;11.57
72794;BME280;63436;26.334;50.194;2023-03-22T11:16:30;100941.90;;;29.33;11.41
72794;BME280;63436;26.334;50.194;2023-03-22T11:18:54;100939.14;;;29.18;11.68
72794;BME280;63436;26.334;50.194;2023-03-22T11:21:24;100933.98;;;28.65;11.31
72794;BME280;63436;26.334;50.194;2023-03-22T11:23:54;100941.81;;;28.51;12.01
72794;BME280;63436;26.334;50.194;2023-03-22T11:26:13;100943.16;;;28.41;11.82
72794;BME280;63436;26.334;50.194;2023-03-22T11:28:41;100937.78;;;28.95;11.73
72794;BME280;63436;26.334;50.194;2023-03-22T11:31:06;100934.42;;;29.60;11.44
72794;BME280;63436;26.334;50.194;2023-03-22T11:33:29;100931.45;;;30.06;11.60
72794;BME280;63436;26.334;50.194;2023-03-22T11:35:56;100934.60;;;29.36;11.88
72794;BME280;63436;26.334;50.194;2023-03-22T11:38:25;100939.53;;;29.40;11.58
72794;BME280;63436;26.334;50.194;2023-03-22T11:40:51;100928.57;;;28.87;11.53
72794;BME280;63436;26.334;50.194;2023-03-22T11:43:15;100931.84;;;29.03;11.47
72794;BME280;63436;26.334;50.194;2023-03-22T11:45:41;100941.57;;;29.60;11.71
72794;BME280;63436;26.334;50.194;2023-03-22T11:48:06;100931.41;;;28.70;11.81
72794;BME280;63436;26.334;50.194;2023-03-22T11:50:30;100928.53;;;28.71;11.44
72794;BME280;63436;26.334;50.194;2023-03-22T11:52:53;100927.11;;;29.41;11.54
72794;BME280;63436;26.334;50.194;2023-03-22T11:55:19;100925.13;;;29.66;11.33
72794;BME280;63436;26.334;50.194;2023-03-22T11:57:46;100925.08;;;29.89;11.01
72794;BME280;63436;26.334;50.194;2023-03-22T12:00:16;100926.15;;;29.66;10.90
72794;BME280;63436;26.334;50.194;2023-03-22T12:02:41;100928.18;;;29.56;11.70
72794;BME280;63436;26.334;50.194;2023-03-22T12:05:07;100923.45;;;27.70;12.13
72794;BME280;63436;26.334;50.194;2023-03-22T12:07:28;100929.56;;;29.99;11.14
72794;BME280;63436;26.334;50.194;2023-03-22T12:09:58;100937.20;;;28.39;11.77
72794;BME280;63436;26.334;50.194;2023-03-22T12:12:21;100941.13;;;29.01;11.70
72794;BME280;63436;26.334;50.194;2023-03-22T12:14:48;100932.38;;;29.62;11.35
72794;BME280;63436;26.334;50.194;2023-03-22T12:17:14;100928.40;;;30.45;11.15
72794;BME280;63436;26.334;50.194;2023-03-22T12:19:44;100928.50;;;28.88;11.96
72794;BME280;63436;26.334;50.194;2023-03-22T12:22:04;100932.95;;;29.10;11.80
72794;BME280;63436;26.334;50.194;2023-03-22T12:24:29;100948.13;;;27.50;17.57
72794;BME280;63436;26.334;50.194;2023-03-22T12:26:56;100954.36;;;28.97;18.20
72794;BME280;63436;26.334;50.194;2023-03-22T12:29:18;100964.45;;;28.97;19.04
72794;BME280;63436;26.334;50.194;2023-03-22T12:31:46;100962.66;;;28.35;19.15
72794;BME280;63436;26.334;50.194;2023-03-22T12:34:13;100971.40;;;28.28;19.00
72794;BME280;63436;26.334;50.194;2023-03-22T12:36:40;100967.64;;;27.89;19.09
72794;BME280;63436;26.334;50.194;2023-03-22T12:39:00;100970.15;;;27.75;20.03
72794;BME280;63436;26.334;50.194;2023-03-22T12:41:30;100963.04;;;28.62;18.47
72794;BME280;63436;26.334;50.194;2023-03-22T12:43:54;100975.82;;;28.09;19.01